sensor_id;sensor_type;location;lat;lon;timestamp;pressure;altitude;pressure_sealevel;temperature;humidity
58367;BME280;57745;42.524;12.052;2023-05-22T00:02:03;96034.84;;;19.83;59.75
58367;BME280;57745;42.524;12.052;2023-05-22T00:04:29;96032.38;;;19.96;59.27
58367;BME280;57745;42.524;12.052;2023-05-22T00:06:55;96030.34;;;19.91;59.21
58367;BME280;57745;42.524;12.052;2023-05-22T00:09:23;96032.56;;;19.64;59.68
58367;BME280;57745;42.524;12.052;2023-05-22T00:11:48;96032.59;;;19.87;59.41
58367;BME280;57745;42.524;12.052;2023-05-22T00:14:14;96031.53;;;19.62;59.68
58367;BME280;57745;42.524;12.052;2023-05-22T00:16:40;96028.81;;;19.73;59.64
58367;BME280;57745;42.524;12.052;2023-05-22T00:19:06;96022.31;;;19.82;59.41
58367;BME280;57745;42.524;12.052;2023-05-22T00:21:37;96020.31;;;19.82;59.03
58367;BME280;57745;42.524;12.052;2023-05-22T00:24:04;96020.56;;;19.79;59.72
58367;BME280;57745;42.524;12.052;2023-05-22T00:26:29;96019.84;;;19.89;59.06
58367;BME280;57745;42.524;12.052;2023-05-22T00:28:55;96013.34;;;19.87;59.21
58367;BME280;57745;42.524;12.052;2023-05-22T00:31:20;96011.84;;;19.91;59.08
58367;BME280;57745;42.524;12.052;2023-05-22T00:33:45;96013.84;;;19.91;58.94
58367;BME280;57745;42.524;12.052;2023-05-22T00:36:11;96009.84;;;19.92;58.87
58367;BME280;57745;42.524;12.052;2023-05-22T00:38:37;96008.31;;;19.91;58.95
58367;BME280;57745;42.524;12.052;2023-05-22T00:41:03;96015.81;;;19.73;59.40
58367;BME280;57745;42.524;12.052;2023-05-22T00:43:30;96012.84;;;19.88;58.98
58367;BME280;57745;42.524;12.052;2023-05-22T00:45:56;96011.84;;;19.91;58.73
58367;BME280;57745;42.524;12.052;2023-05-22T00:48:22;96017.59;;;19.88;58.59
58367;BME280;57745;42.524;12.052;2023-05-22T00:50:51;96007.81;;;19.76;58.58
58367;BME280;57745;42.524;12.052;2023-05-22T00:53:21;96002.59;;;19.89;58.54
58367;BME280;57745;42.524;12.052;2023-05-22T00:55:48;96000.31;;;19.82;58.88
58367;BME280;57745;42.524;12.052;2023-05-22T00:58:18;95988.81;;;19.78;58.68
58367;BME280;57745;42.524;12.052;2023-05-22T01:00:44;95997.78;;;19.61;59.12
58367;BME280;57745;42.524;12.052;2023-05-22T01:03:11;95998.56;;;19.84;58.27
58367;BME280;57745;42.524;12.052;2023-05-22T01:05:37;95998.56;;;19.84;58.29
58367;BME280;57745;42.524;12.052;2023-05-22T01:08:04;95994.34;;;20.00;58.00
58367;BME280;57745;42.524;12.052;2023-05-22T01:10:32;95990.81;;;19.83;58.18
58367;BME280;57745;42.524;12.052;2023-05-22T01:26:37;96006.78;;;19.67;58.14
58367;BME280;57745;42.524;12.052;2023-05-22T01:29:13;96000.81;;;19.86;57.63
58367;BME280;57745;42.524;12.052;2023-05-22T01:31:40;96009.81;;;19.81;57.87
58367;BME280;57745;42.524;12.052;2023-05-22T01:34:09;96004.81;;;19.85;58.16
58367;BME280;57745;42.524;12.052;2023-05-22T01:36:36;96001.59;;;19.86;57.92
58367;BME280;57745;42.524;12.052;2023-05-22T01:39:03;95999.56;;;19.76;58.40
58367;BME280;57745;42.524;12.052;2023-05-22T01:41:33;96006.56;;;19.77;58.28
58367;BME280;57745;42.524;12.052;2023-05-22T01:44:02;96006.56;;;19.77;57.99
58367;BME280;57745;42.524;12.052;2023-05-22T01:46:28;96004.31;;;19.75;57.68
58367;BME280;57745;42.524;12.052;2023-05-22T01:48:54;96011.28;;;19.70;58.15
58367;BME280;57745;42.524;12.052;2023-05-22T02:02:17;96003.84;;;19.88;56.96
58367;BME280;57745;42.524;12.052;2023-05-22T02:04:45;96007.56;;;19.73;57.49
58367;BME280;57745;42.524;12.052;2023-05-22T02:07:13;96001.03;;;19.65;57.69
58367;BME280;57745;42.524;12.052;2023-05-22T02:09:39;96000.53;;;19.67;57.69
58367;BME280;57745;42.524;12.052;2023-05-22T02:12:05;95992.28;;;19.61;57.80
58367;BME280;57745;42.524;12.052;2023-05-22T02:14:32;95999.78;;;19.66;58.01
58367;BME280;57745;42.524;12.052;2023-05-22T02:16:58;95993.03;;;19.62;57.94
58367;BME280;57745;42.524;12.052;2023-05-22T02:19:26;96001.03;;;19.65;57.81
58367;BME280;57745;42.524;12.052;2023-05-22T02:21:52;96002.03;;;19.62;57.80
58367;BME280;57745;42.524;12.052;2023-05-22T02:24:17;96001.78;;;19.60;57.90
58367;BME280;57745;42.524;12.052;2023-05-22T02:26:43;96000.06;;;19.80;57.30
58367;BME280;57745;42.524;12.052;2023-05-22T02:29:08;95992.81;;;19.77;57.55
58367;BME280;57745;42.524;12.052;2023-05-22T02:31:34;96003.31;;;19.72;57.69
58367;BME280;57745;42.524;12.052;2023-05-22T02:33:59;96000.03;;;19.63;58.02
58367;BME280;57745;42.524;12.052;2023-05-22T02:36:25;95997.03;;;19.72;57.80
58367;BME280;57745;42.524;12.052;2023-05-22T02:38:51;95997.31;;;19.74;57.63
58367;BME280;57745;42.524;12.052;2023-05-22T02:41:17;95993.56;;;19.77;57.45
58367;BME280;57745;42.524;12.052;2023-05-22T02:43:42;95988.78;;;19.66;57.50
58367;BME280;57745;42.524;12.052;2023-05-22T02:46:07;95987.31;;;19.82;56.84
58367;BME280;57745;42.524;12.052;2023-05-22T02:48:33;95988.00;;;19.66;57.25
58367;BME280;57745;42.524;12.052;2023-05-22T02:50:58;95993.78;;;19.62;57.35
58367;BME280;57745;42.524;12.052;2023-05-22T02:53:24;95983.25;;;19.66;57.39
58367;BME280;57745;42.524;12.052;2023-05-22T02:55:49;95985.00;;;19.58;57.42
58367;BME280;57745;42.524;12.052;2023-05-22T02:58:17;95980.31;;;19.76;56.99
58367;BME280;57745;42.524;12.052;2023-05-22T03:00:43;95986.56;;;19.82;56.68
58367;BME280;57745;42.524;12.052;2023-05-22T03:03:09;95978.00;;;19.57;57.06
58367;BME280;57745;42.524;12.052;2023-05-22T03:05:35;95977.53;;;19.64;57.07
58367;BME280;57745;42.524;12.052;2023-05-22T03:08:01;95982.78;;;19.62;57.07
58367;BME280;57745;42.524;12.052;2023-05-22T03:10:26;95979.78;;;19.71;56.58
58367;BME280;57745;42.524;12.052;2023-05-22T03:12:52;95981.28;;;19.61;56.69
58367;BME280;57745;42.524;12.052;2023-05-22T03:15:17;95985.25;;;19.49;57.32
58367;BME280;57745;42.524;12.052;2023-05-22T03:17:43;95981.28;;;19.61;56.85
58367;BME280;57745;42.524;12.052;2023-05-22T03:20:09;95984.00;;;19.56;57.01
58367;BME280;57745;42.524;12.052;2023-05-22T03:22:34;95979.19;;;19.45;56.82
58367;BME280;57745;42.524;12.052;2023-05-22T03:25:00;95985.00;;;19.58;56.92
58367;BME280;57745;42.524;12.052;2023-05-22T03:27:26;95980.28;;;19.70;56.22
58367;BME280;57745;42.524;12.052;2023-05-22T03:29:51;95980.25;;;19.59;56.78
58367;BME280;57745;42.524;12.052;2023-05-22T03:32:16;95984.28;;;19.63;56.31
58367;BME280;57745;42.524;12.052;2023-05-22T03:34:42;95980.50;;;19.50;56.45
58367;BME280;57745;42.524;12.052;2023-05-22T03:37:07;95984.75;;;19.56;56.27
58367;BME280;57745;42.524;12.052;2023-05-22T03:39:34;95984.78;;;19.67;55.74
58367;BME280;57745;42.524;12.052;2023-05-22T03:41:59;95988.28;;;19.62;56.27
58367;BME280;57745;42.524;12.052;2023-05-22T03:44:25;95994.25;;;19.55;56.37
58367;BME280;57745;42.524;12.052;2023-05-22T03:46:51;95993.03;;;19.62;56.28
58367;BME280;57745;42.524;12.052;2023-05-22T03:49:16;95990.25;;;19.56;56.32
58367;BME280;57745;42.524;12.052;2023-05-22T03:51:41;95993.28;;;19.69;56.00
58367;BME280;57745;42.524;12.052;2023-05-22T03:54:07;95992.25;;;19.56;56.49
58367;BME280;57745;42.524;12.052;2023-05-22T03:56:33;95997.28;;;19.63;56.06
58367;BME280;57745;42.524;12.052;2023-05-22T03:58:59;96001.50;;;19.53;56.56
58367;BME280;57745;42.524;12.052;2023-05-22T04:01:24;95998.66;;;19.42;56.12
58367;BME280;57745;42.524;12.052;2023-05-22T04:03:51;95991.97;;;19.48;56.30
58367;BME280;57745;42.524;12.052;2023-05-22T04:06:16;95991.28;;;19.64;55.96
58367;BME280;57745;42.524;12.052;2023-05-22T04:08:46;95995.28;;;19.63;56.13
58367;BME280;57745;42.524;12.052;2023-05-22T04:11:12;95994.53;;;19.63;56.35
58367;BME280;57745;42.524;12.052;2023-05-22T04:13:40;95995.31;;;19.75;55.95
58367;BME280;57745;42.524;12.052;2023-05-22T04:16:06;96003.25;;;19.56;56.47
58367;BME280;57745;42.524;12.052;2023-05-22T04:18:31;96001.44;;;19.47;56.62
58367;BME280;57745;42.524;12.052;2023-05-22T04:20:57;95999.69;;;19.44;56.09
58367;BME280;57745;42.524;12.052;2023-05-22T04:23:22;95998.53;;;19.62;56.28
58367;BME280;57745;42.524;12.052;2023-05-22T04:25:48;96000.78;;;19.69;55.76
58367;BME280;57745;42.524;12.052;2023-05-22T04:28:14;96002.03;;;19.68;56.00
58367;BME280;57745;42.524;12.052;2023-05-22T04:30:43;96010.06;;;19.77;55.76
58367;BME280;57745;42.524;12.052;2023-05-22T04:33:08;96010.94;;;19.46;56.32
58367;BME280;57745;42.524;12.052;2023-05-22T04:35:34;96009.69;;;19.47;56.27
58367;BME280;57745;42.524;12.052;2023-05-22T04:38:00;96004.75;;;19.51;55.84
58367;BME280;57745;42.524;12.052;2023-05-22T04:40:26;96013.25;;;19.53;55.99
58367;BME280;57745;42.524;12.052;2023-05-22T04:42:53;96014.56;;;19.75;55.72
58367;BME280;57745;42.524;12.052;2023-05-22T04:45:19;96004.06;;;19.73;55.60
58367;BME280;57745;42.524;12.052;2023-05-22T04:47:49;96009.81;;;19.81;55.43
58367;BME280;57745;42.524;12.052;2023-05-22T04:50:16;96010.00;;;19.55;56.13
58367;BME280;57745;42.524;12.052;2023-05-22T04:52:43;96013.50;;;19.55;56.51
58367;BME280;57745;42.524;12.052;2023-05-22T04:55:08;96017.25;;;19.52;56.61
58367;BME280;57745;42.524;12.052;2023-05-22T04:57:36;96014.25;;;19.56;56.87
58367;BME280;57745;42.524;12.052;2023-05-22T05:00:02;96015.00;;;19.51;56.87
58367;BME280;57745;42.524;12.052;2023-05-22T05:02:29;96019.28;;;19.68;56.53
58367;BME280;57745;42.524;12.052;2023-05-22T05:04:54;96014.78;;;19.60;56.78
58367;BME280;57745;42.524;12.052;2023-05-22T05:07:20;96025.78;;;19.60;56.69
58367;BME280;57745;42.524;12.052;2023-05-22T05:09:47;96024.50;;;19.55;57.15
58367;BME280;57745;42.524;12.052;2023-05-22T05:12:12;96022.50;;;19.50;57.36
58367;BME280;57745;42.524;12.052;2023-05-22T05:14:38;96020.00;;;19.58;56.92
58367;BME280;57745;42.524;12.052;2023-05-22T05:17:03;96028.78;;;19.62;56.73
58367;BME280;57745;42.524;12.052;2023-05-22T05:19:29;96020.78;;;19.69;56.74
58367;BME280;57745;42.524;12.052;2023-05-22T05:21:54;96018.03;;;19.69;56.71
58367;BME280;57745;42.524;12.052;2023-05-22T05:24:20;96030.53;;;19.59;56.87
58367;BME280;57745;42.524;12.052;2023-05-22T05:26:45;96035.03;;;19.62;56.93
58367;BME280;57745;42.524;12.052;2023-05-22T05:29:11;96035.31;;;19.64;56.71
58367;BME280;57745;42.524;12.052;2023-05-22T05:31:37;96036.03;;;19.59;56.78
58367;BME280;57745;42.524;12.052;2023-05-22T05:34:02;96029.53;;;19.62;56.79
58367;BME280;57745;42.524;12.052;2023-05-22T05:36:28;96030.53;;;19.59;56.30
58367;BME280;57745;42.524;12.052;2023-05-22T05:38:53;96034.25;;;19.56;56.63
58367;BME280;57745;42.524;12.052;2023-05-22T05:41:20;96032.78;;;19.66;56.55
58367;BME280;57745;42.524;12.052;2023-05-22T05:43:47;96035.53;;;19.61;56.69
58367;BME280;57745;42.524;12.052;2023-05-22T05:46:12;96033.81;;;19.63;56.54
58367;BME280;57745;42.524;12.052;2023-05-22T05:48:38;96027.78;;;19.59;56.25
58367;BME280;57745;42.524;12.052;2023-05-22T05:51:03;96036.84;;;19.77;56.08
58367;BME280;57745;42.524;12.052;2023-05-22T05:53:29;96033.34;;;19.76;56.37
58367;BME280;57745;42.524;12.052;2023-05-22T05:55:54;96039.28;;;19.58;56.88
58367;BME280;57745;42.524;12.052;2023-05-22T05:58:20;96037.81;;;19.73;56.77
58367;BME280;57745;42.524;12.052;2023-05-22T06:00:45;96038.25;;;19.55;57.44
58367;BME280;57745;42.524;12.052;2023-05-22T06:03:11;96038.81;;;19.70;56.87
58367;BME280;57745;42.524;12.052;2023-05-22T06:05:36;96036.09;;;19.76;56.77
58367;BME280;57745;42.524;12.052;2023-05-22T06:08:02;96040.06;;;19.64;56.95
58367;BME280;57745;42.524;12.052;2023-05-22T06:10:28;96038.06;;;19.70;56.74
58367;BME280;57745;42.524;12.052;2023-05-22T06:12:53;96035.81;;;19.74;56.90
58367;BME280;57745;42.524;12.052;2023-05-22T06:15:19;96041.00;;;19.55;57.45
58367;BME280;57745;42.524;12.052;2023-05-22T06:17:44;96056.09;;;19.77;56.88
58367;BME280;57745;42.524;12.052;2023-05-22T06:20:10;96048.06;;;19.79;56.89
58367;BME280;57745;42.524;12.052;2023-05-22T06:22:36;96050.09;;;19.84;56.64
58367;BME280;57745;42.524;12.052;2023-05-22T06:25:01;96061.59;;;19.82;56.48
58367;BME280;57745;42.524;12.052;2023-05-22T06:27:27;96055.34;;;19.82;56.39
58367;BME280;57745;42.524;12.052;2023-05-22T06:29:52;96057.59;;;19.78;56.50
58367;BME280;57745;42.524;12.052;2023-05-22T06:32:18;96063.34;;;19.80;56.62
58367;BME280;57745;42.524;12.052;2023-05-22T06:34:46;96056.09;;;19.77;56.70
58367;BME280;57745;42.524;12.052;2023-05-22T06:37:12;96057.13;;;19.85;56.60
58367;BME280;57745;42.524;12.052;2023-05-22T06:39:38;96057.09;;;19.79;56.82
58367;BME280;57745;42.524;12.052;2023-05-22T06:42:05;96061.84;;;19.79;56.75
58367;BME280;57745;42.524;12.052;2023-05-22T06:44:30;96059.59;;;19.83;56.87
58367;BME280;57745;42.524;12.052;2023-05-22T06:46:56;96064.13;;;19.86;57.10
58367;BME280;57745;42.524;12.052;2023-05-22T06:49:21;96056.38;;;19.90;57.02
58367;BME280;57745;42.524;12.052;2023-05-22T06:51:47;96059.13;;;19.95;56.61
58367;BME280;57745;42.524;12.052;2023-05-22T06:54:21;96065.91;;;20.17;56.13
58367;BME280;57745;42.524;12.052;2023-05-22T06:56:46;96054.91;;;20.00;56.76
58367;BME280;57745;42.524;12.052;2023-05-22T06:59:12;96063.16;;;20.00;56.92
58367;BME280;57745;42.524;12.052;2023-05-22T07:01:37;96062.16;;;20.08;56.79
58367;BME280;57745;42.524;12.052;2023-05-22T07:04:03;96065.69;;;20.15;56.66
58367;BME280;57745;42.524;12.052;2023-05-22T07:06:33;96052.91;;;20.17;56.39
58367;BME280;57745;42.524;12.052;2023-05-22T07:09:06;96067.44;;;20.18;56.32
58367;BME280;57745;42.524;12.052;2023-05-22T07:11:32;96068.69;;;20.11;56.75
58367;BME280;57745;42.524;12.052;2023-05-22T07:13:59;96065.94;;;20.22;56.22
58367;BME280;57745;42.524;12.052;2023-05-22T07:16:25;96063.44;;;20.24;56.10
58367;BME280;57745;42.524;12.052;2023-05-22T07:18:50;96059.66;;;20.16;56.38
58367;BME280;57745;42.524;12.052;2023-05-22T07:21:17;96066.19;;;20.30;55.83
58367;BME280;57745;42.524;12.052;2023-05-22T07:23:42;96060.69;;;20.30;55.91
58367;BME280;57745;42.524;12.052;2023-05-22T07:26:08;96067.41;;;20.01;56.95
58367;BME280;57745;42.524;12.052;2023-05-22T07:28:33;96068.19;;;20.24;56.28
58367;BME280;57745;42.524;12.052;2023-05-22T07:30:59;96078.69;;;20.20;56.63
58367;BME280;57745;42.524;12.052;2023-05-22T07:33:24;96066.44;;;20.15;56.49
58367;BME280;57745;42.524;12.052;2023-05-22T07:35:50;96071.41;;;20.00;57.06
58367;BME280;57745;42.524;12.052;2023-05-22T07:38:16;96073.69;;;20.29;56.32
58367;BME280;57745;42.524;12.052;2023-05-22T07:40:41;96070.69;;;20.11;57.10
58367;BME280;57745;42.524;12.052;2023-05-22T07:43:07;96067.19;;;20.21;56.47
58367;BME280;57745;42.524;12.052;2023-05-22T07:45:32;96070.69;;;20.22;56.17
58367;BME280;57745;42.524;12.052;2023-05-22T07:47:58;96080.44;;;20.17;56.70
58367;BME280;57745;42.524;12.052;2023-05-22T07:50:24;96079.44;;;20.09;56.17
58367;BME280;57745;42.524;12.052;2023-05-22T07:52:51;96088.97;;;20.19;55.65
58367;BME280;57745;42.524;12.052;2023-05-22T07:55:16;96084.22;;;20.20;56.44
58367;BME280;57745;42.524;12.052;2023-05-22T07:57:42;96088.97;;;20.14;56.79
58367;BME280;57745;42.524;12.052;2023-05-22T08:00:08;96082.97;;;20.15;56.39
58367;BME280;57745;42.524;12.052;2023-05-22T08:02:34;96086.97;;;20.14;57.00
58367;BME280;57745;42.524;12.052;2023-05-22T08:05:01;96092.47;;;20.14;57.02
58367;BME280;57745;42.524;12.052;2023-05-22T08:07:26;96084.69;;;20.18;56.54
58367;BME280;57745;42.524;12.052;2023-05-22T08:09:52;96091.22;;;20.15;56.74
58367;BME280;57745;42.524;12.052;2023-05-22T08:12:17;96090.69;;;20.17;56.47
58367;BME280;57745;42.524;12.052;2023-05-22T08:14:42;96092.97;;;20.29;56.35
58367;BME280;57745;42.524;12.052;2023-05-22T08:17:08;96102.00;;;20.24;57.17
58367;BME280;57745;42.524;12.052;2023-05-22T08:19:33;96098.75;;;20.26;57.25
58367;BME280;57745;42.524;12.052;2023-05-22T08:21:58;96096.97;;;20.28;57.01
58367;BME280;57745;42.524;12.052;2023-05-22T08:24:24;96090.72;;;20.28;56.63
58367;BME280;57745;42.524;12.052;2023-05-22T08:26:56;96083.50;;;20.41;56.41
58367;BME280;57745;42.524;12.052;2023-05-22T08:29:22;96095.50;;;20.27;57.06
58367;BME280;57745;42.524;12.052;2023-05-22T08:31:47;96101.25;;;20.29;56.94
58367;BME280;57745;42.524;12.052;2023-05-22T08:34:13;96104.03;;;20.40;56.33
58367;BME280;57745;42.524;12.052;2023-05-22T08:36:38;96102.03;;;20.35;57.01
58367;BME280;57745;42.524;12.052;2023-05-22T08:39:04;96097.50;;;20.32;57.36
58367;BME280;57745;42.524;12.052;2023-05-22T08:41:31;96105.75;;;20.32;57.14
58367;BME280;57745;42.524;12.052;2023-05-22T08:43:57;96100.03;;;20.41;56.92
58367;BME280;57745;42.524;12.052;2023-05-22T08:46:23;96104.78;;;20.35;56.76
58367;BME280;57745;42.524;12.052;2023-05-22T08:48:55;96098.78;;;20.37;56.24
58367;BME280;57745;42.524;12.052;2023-05-22T08:51:21;96105.06;;;20.37;56.82
58367;BME280;57745;42.524;12.052;2023-05-22T08:53:50;96102.03;;;20.35;57.31
58367;BME280;57745;42.524;12.052;2023-05-22T08:56:17;96113.31;;;20.43;56.77
58367;BME280;57745;42.524;12.052;2023-05-22T08:58:43;96114.06;;;20.43;55.92
58367;BME280;57745;42.524;12.052;2023-05-22T09:01:10;96108.06;;;20.39;55.29
58367;BME280;57745;42.524;12.052;2023-05-22T09:03:36;96109.31;;;20.50;54.29
58367;BME280;57745;42.524;12.052;2023-05-22T09:06:02;96100.28;;;20.55;54.25
58367;BME280;57745;42.524;12.052;2023-05-22T09:08:27;96117.09;;;20.51;54.92
58367;BME280;57745;42.524;12.052;2023-05-22T09:10:53;96110.81;;;20.56;55.03
58367;BME280;57745;42.524;12.052;2023-05-22T09:13:25;96106.28;;;20.53;55.24
58367;BME280;57745;42.524;12.052;2023-05-22T09:15:51;96109.31;;;20.61;55.20
58367;BME280;57745;42.524;12.052;2023-05-22T09:18:17;96117.06;;;20.57;55.59
58367;BME280;57745;42.524;12.052;2023-05-22T09:20:42;96113.81;;;20.58;55.76
58367;BME280;57745;42.524;12.052;2023-05-22T09:23:12;96114.34;;;20.51;55.50
58367;BME280;57745;42.524;12.052;2023-05-22T09:25:42;96124.84;;;20.58;55.01
58367;BME280;57745;42.524;12.052;2023-05-22T09:28:09;96119.34;;;20.58;55.24
58367;BME280;57745;42.524;12.052;2023-05-22T09:30:35;96112.09;;;20.61;55.15
58367;BME280;57745;42.524;12.052;2023-05-22T09:33:01;96107.56;;;20.58;55.20
58367;BME280;57745;42.524;12.052;2023-05-22T09:35:30;96108.06;;;20.62;54.79
58367;BME280;57745;42.524;12.052;2023-05-22T09:37:57;96109.31;;;20.66;55.00
58367;BME280;57745;42.524;12.052;2023-05-22T09:40:22;96107.06;;;20.65;54.43
58367;BME280;57745;42.524;12.052;2023-05-22T09:42:48;96116.09;;;20.71;54.45
58367;BME280;57745;42.524;12.052;2023-05-22T09:45:18;96107.31;;;20.72;54.06
58367;BME280;57745;42.524;12.052;2023-05-22T09:47:48;96109.81;;;20.70;54.63
58367;BME280;57745;42.524;12.052;2023-05-22T09:50:14;96114.81;;;20.66;55.41
58367;BME280;57745;42.524;12.052;2023-05-22T09:52:43;96109.56;;;20.79;54.78
58367;BME280;57745;42.524;12.052;2023-05-22T09:55:09;96114.34;;;20.73;54.44
58367;BME280;57745;42.524;12.052;2023-05-22T09:57:43;96119.84;;;20.79;54.47
58367;BME280;57745;42.524;12.052;2023-05-22T10:00:13;96108.31;;;20.75;54.12
58367;BME280;57745;42.524;12.052;2023-05-22T10:03:09;96113.81;;;20.80;53.67
58367;BME280;57745;42.524;12.052;2023-05-22T10:05:42;96118.34;;;20.84;53.94
58367;BME280;57745;42.524;12.052;2023-05-22T10:08:13;96114.34;;;20.85;52.52
58367;BME280;57745;42.524;12.052;2023-05-22T10:10:41;96113.84;;;20.86;53.18
58367;BME280;57745;42.524;12.052;2023-05-22T10:13:07;96117.06;;;20.90;53.71
58367;BME280;57745;42.524;12.052;2023-05-22T10:15:35;96106.28;;;20.92;52.92
58367;BME280;57745;42.524;12.052;2023-05-22T10:18:00;96109.81;;;20.98;52.90
58367;BME280;57745;42.524;12.052;2023-05-22T10:20:28;96109.56;;;20.85;53.84
58367;BME280;57745;42.524;12.052;2023-05-22T10:22:54;96105.81;;;20.94;53.66
58367;BME280;57745;42.524;12.052;2023-05-22T10:25:20;96104.06;;;20.96;53.02
58367;BME280;57745;42.524;12.052;2023-05-22T10:27:53;96107.81;;;20.93;52.73
58367;BME280;57745;42.524;12.052;2023-05-22T10:30:28;96114.81;;;20.94;52.15
58367;BME280;57745;42.524;12.052;2023-05-22T10:33:04;96110.06;;;21.00;51.53
58367;BME280;57745;42.524;12.052;2023-05-22T10:35:42;96103.78;;;21.05;51.39
58367;BME280;57745;42.524;12.052;2023-05-22T10:38:34;96107.78;;;21.10;51.88
58367;BME280;57745;42.524;12.052;2023-05-22T10:41:04;96096.25;;;21.06;51.79
58367;BME280;57745;42.524;12.052;2023-05-22T10:43:31;96099.28;;;21.13;52.40
58367;BME280;57745;42.524;12.052;2023-05-22T10:46:04;96096.00;;;21.09;53.11
58367;BME280;57745;42.524;12.052;2023-05-22T10:48:37;96093.53;;;21.00;53.59
58367;BME280;57745;42.524;12.052;2023-05-22T10:51:04;96084.19;;;21.14;53.57
58367;BME280;57745;42.524;12.052;2023-05-22T10:53:31;96087.50;;;21.07;53.40
58367;BME280;57745;42.524;12.052;2023-05-22T10:55:57;96083.25;;;21.01;52.47
58367;BME280;57745;42.524;12.052;2023-05-22T10:58:32;96094.50;;;21.08;53.07
58367;BME280;57745;42.524;12.052;2023-05-22T11:01:24;96080.72;;;21.08;52.12
58367;BME280;57745;42.524;12.052;2023-05-22T11:06:45;96073.94;;;21.15;51.73
58367;BME280;57745;42.524;12.052;2023-05-22T11:11:43;96067.91;;;21.16;52.03
58367;BME280;57745;42.524;12.052;2023-05-22T11:14:10;96067.69;;;21.20;51.72
58367;BME280;57745;42.524;12.052;2023-05-22T11:16:37;96068.19;;;21.24;52.54
58367;BME280;57745;42.524;12.052;2023-05-22T11:19:07;96065.94;;;21.23;52.91
58367;BME280;57745;42.524;12.052;2023-05-22T11:21:41;96053.16;;;21.25;53.41
58367;BME280;57745;42.524;12.052;2023-05-22T11:24:08;96065.19;;;21.22;53.66
58367;BME280;57745;42.524;12.052;2023-05-22T11:26:33;96053.41;;;21.22;53.13
58367;BME280;57745;42.524;12.052;2023-05-22T11:28:59;96057.66;;;21.23;52.98
58367;BME280;57745;42.524;12.052;2023-05-22T11:31:25;96049.63;;;21.19;53.65
58367;BME280;57745;42.524;12.052;2023-05-22T11:33:52;96045.84;;;21.28;53.85
58367;BME280;57745;42.524;12.052;2023-05-22T11:36:17;96056.16;;;21.22;54.10
58367;BME280;57745;42.524;12.052;2023-05-22T11:38:43;96056.41;;;21.24;54.40
58367;BME280;57745;42.524;12.052;2023-05-22T11:41:09;96058.38;;;21.17;54.55
58367;BME280;57745;42.524;12.052;2023-05-22T11:43:35;96057.41;;;21.21;54.27
58367;BME280;57745;42.524;12.052;2023-05-22T11:46:05;96054.91;;;21.23;54.34
58367;BME280;57745;42.524;12.052;2023-05-22T11:48:32;96045.63;;;21.26;54.39
58367;BME280;57745;42.524;12.052;2023-05-22T11:50:58;96038.81;;;21.27;54.29
58367;BME280;57745;42.524;12.052;2023-05-22T11:53:24;96037.06;;;21.29;54.20
58367;BME280;57745;42.524;12.052;2023-05-22T11:55:49;96026.53;;;21.28;54.12
58367;BME280;57745;42.524;12.052;2023-05-22T11:58:15;96026.31;;;21.26;53.57
58367;BME280;57745;42.524;12.052;2023-05-22T12:00:42;96022.06;;;21.25;54.09
58367;BME280;57745;42.524;12.052;2023-05-22T12:03:07;96026.78;;;21.35;53.70
58367;BME280;57745;42.524;12.052;2023-05-22T12:05:32;96020.28;;;21.27;54.33
58367;BME280;57745;42.524;12.052;2023-05-22T12:07:58;96025.78;;;21.27;54.29
58367;BME280;57745;42.524;12.052;2023-05-22T12:10:24;96023.50;;;21.37;53.65
58367;BME280;57745;42.524;12.052;2023-05-22T12:12:49;96024.53;;;21.34;53.85
58367;BME280;57745;42.524;12.052;2023-05-22T12:15:19;96013.25;;;21.32;53.74
58367;BME280;57745;42.524;12.052;2023-05-22T12:17:45;96012.00;;;21.27;53.81
58367;BME280;57745;42.524;12.052;2023-05-22T12:20:12;96022.03;;;21.30;54.07
58367;BME280;57745;42.524;12.052;2023-05-22T12:22:42;96023.03;;;21.33;53.83
58367;BME280;57745;42.524;12.052;2023-05-22T12:25:15;96036.81;;;21.33;53.69
58367;BME280;57745;42.524;12.052;2023-05-22T12:27:44;96037.81;;;21.30;53.41
58367;BME280;57745;42.524;12.052;2023-05-22T12:30:11;96035.31;;;21.32;52.83
58367;BME280;57745;42.524;12.052;2023-05-22T12:32:38;96031.50;;;21.40;52.50
58367;BME280;57745;42.524;12.052;2023-05-22T12:35:04;96031.25;;;21.44;52.09
58367;BME280;57745;42.524;12.052;2023-05-22T12:37:32;96028.25;;;21.42;52.10
58367;BME280;57745;42.524;12.052;2023-05-22T12:40:03;96022.72;;;21.42;52.39
58367;BME280;57745;42.524;12.052;2023-05-22T12:42:28;96026.28;;;21.37;52.14
58367;BME280;57745;42.524;12.052;2023-05-22T12:44:57;96024.28;;;21.32;52.40
58367;BME280;57745;42.524;12.052;2023-05-22T12:47:24;96015.44;;;21.44;52.64
58367;BME280;57745;42.524;12.052;2023-05-22T12:49:50;96007.44;;;21.41;53.48
58367;BME280;57745;42.524;12.052;2023-05-22T12:52:15;96018.47;;;21.41;53.27
58367;BME280;57745;42.524;12.052;2023-05-22T12:54:41;96014.44;;;21.42;52.64
58367;BME280;57745;42.524;12.052;2023-05-22T12:57:07;96008.91;;;21.47;52.74
58367;BME280;57745;42.524;12.052;2023-05-22T12:59:32;96013.50;;;21.34;52.59
58367;BME280;57745;42.524;12.052;2023-05-22T13:01:58;96009.94;;;21.44;51.98
58367;BME280;57745;42.524;12.052;2023-05-22T13:04:27;96011.44;;;21.45;52.45
58367;BME280;57745;42.524;12.052;2023-05-22T13:06:53;96013.97;;;21.38;55.20
58367;BME280;57745;42.524;12.052;2023-05-22T13:09:18;96007.72;;;21.37;56.44
58367;BME280;57745;42.524;12.052;2023-05-22T13:11:45;96013.44;;;21.45;57.21
58367;BME280;57745;42.524;12.052;2023-05-22T13:14:10;96016.50;;;21.36;58.38
58367;BME280;57745;42.524;12.052;2023-05-22T13:16:36;96014.44;;;21.47;58.54
58367;BME280;57745;42.524;12.052;2023-05-22T13:19:01;96010.44;;;21.43;58.81